Terminal Aerodrome Forecast
Issued by NWS

Home | Current Version | Previous Version | Text Only | Print | Product List | Glossary On
Versions: 1 2 3 4 5 6 7 8 9 10 11 12 13 14 15 16 17 18 19 20
000
FTUS41 KCLE 281200 AAA
TAFFDY
TAF AMD
KFDY 281229Z 2812/2912 29010KT P6SM SCT025 OVC035
      TEMPO 2815/2818 BKN025 OVC035
     FM282200 30005KT P6SM BKN250=

USA.gov is the U.S. government's official web portal to all federal, state and local government web resources and services.